Foxworth, Mississippi
Current Conditions -  °F | °C
As of 12:55 AM on Monday 24 Nov 2014 (Local Time) from KPIB Reporting Station
Scattered Clouds Scattered Clouds  
Wind Chill: 66°   Ceiling: Unl
Heat Index: 66°   Visibility: 10mi
Dew Point: 61°   Wind: 10mph
Humidity: 83%   Direction: 210°SSW
Pressure: 29.72"   Gusts: 17mph
Location:  31.24°N, 89.87°W
Report Text: KPIB 240655Z AUTO 21009G15KT 10SM SCT016 19/16 A2972 RMK AO1
Loading
Personal Weather Stations






























Interactive Weather Map New forecast layout! Learn more

10-Day Weather Forecast

Advertisements
Track Severe Weather on mobile